Time;durP1;ratioP1;P1;durP2;ratioP2;P2;SDS_P1;SDS_P2;PMS_P1;PMS_P2;Temp;Humidity;BMP_temperature;BMP_pressure;BME280_temperature;BME280_humidity;BME280_pressure;Samples;Min_cycle;Max_cycle;Signal;HPM_P1;HPM_P2
2022/07/26 00:01:29;;;;;;;9.18;2.38;;;19.40;93.90;;;;;;5095068;28;20212;-67
2022/07/26 00:03:57;;;;;;;5.88;2.22;;;19.40;96.10;;;;;;5094508;28;20691;-67
2022/07/26 00:06:25;;;;;;;5.80;2.20;;;19.30;98.50;;;;;;5094850;28;20202;-66
2022/07/26 00:08:52;;;;;;;4.43;2.25;;;19.40;97.80;;;;;;5094720;28;20201;-66
2022/07/26 00:11:20;;;;;;;5.38;2.05;;;19.40;98.80;;;;;;5093725;28;20214;-66
2022/07/26 00:13:47;;;;;;;8.27;2.47;;;19.30;98.20;;;;;;5094757;28;20204;-67
2022/07/26 00:16:15;;;;;;;6.35;2.63;;;19.40;99.30;;;;;;5094033;28;20672;-67
2022/07/26 00:18:42;;;;;;;7.63;2.40;;;19.40;99.90;;;;;;5094068;28;20215;-67
2022/07/26 00:21:11;;;;;;;4.18;1.80;;;19.50;98.60;;;;;;5094845;28;20193;-67
2022/07/26 00:23:38;;;;;;;3.63;2.03;;;19.50;99.90;;;;;;5094076;28;20208;-66
2022/07/26 00:26:05;;;;;;;7.88;2.70;;;19.50;99.90;;;;;;5095111;28;20197;-67
2022/07/26 00:28:32;;;;;;;3.97;1.90;;;19.50;99.60;;;;;;5094529;28;20554;-66
2022/07/26 00:30:59;;;;;;;7.97;2.30;;;19.30;99.90;;;;;;5094743;28;20661;-67
2022/07/26 00:33:25;;;;;;;6.78;2.88;;;19.40;99.90;;;;;;5093948;28;20227;-67
2022/07/26 00:35:52;;;;;;;5.20;2.45;;;19.30;99.90;;;;;;5082365;28;20214;-66
2022/07/26 00:38:20;;;;;;;5.45;2.15;;;19.30;99.90;;;;;;5091074;28;20202;-66
2022/07/26 00:40:47;;;;;;;6.70;2.40;;;19.40;99.90;;;;;;5085439;28;20202;-66
2022/07/26 00:43:14;;;;;;;9.40;2.47;;;19.50;99.90;;;;;;5093573;28;20221;-66
2022/07/26 00:45:41;;;;;;;3.20;2.35;;;19.60;99.90;;;;;;5094319;28;20292;-67
2022/07/26 00:48:08;;;;;;;5.53;2.47;;;19.60;99.90;;;;;;5075791;28;20200;-66
2022/07/26 00:50:35;;;;;;;4.70;2.70;;;19.50;98.80;;;;;;5092963;28;20577;-67
2022/07/26 00:53:03;;;;;;;3.30;1.90;;;19.50;98.60;;;;;;5093739;28;20288;-67
2022/07/26 00:55:31;;;;;;;4.72;1.88;;;19.50;95.70;;;;;;5094375;28;20662;-66
2022/07/26 00:58:00;;;;;;;3.60;1.92;;;19.60;95.00;;;;;;5093459;28;20276;-67
2022/07/26 01:00:27;;;;;;;6.15;2.17;;;19.70;93.10;;;;;;5094400;28;20202;-67
2022/07/26 01:02:54;;;;;;;3.30;1.77;;;19.70;90.00;;;;;;5093623;28;20205;-67
2022/07/26 01:05:22;;;;;;;2.53;1.80;;;19.60;91.50;;;;;;5093392;28;20569;-67
2022/07/26 01:07:50;;;;;;;2.85;1.58;;;19.70;91.80;;;;;;5092957;28;20193;-67
2022/07/26 01:10:17;;;;;;;4.15;1.70;;;19.70;92.10;;;;;;5093146;28;20542;-67
2022/07/26 01:12:45;;;;;;;3.78;1.55;;;19.70;91.20;;;;;;5093396;28;20292;-67
2022/07/26 01:15:14;;;;;;;3.85;1.65;;;19.80;87.20;;;;;;5095083;28;20204;-66
2022/07/26 01:17:41;;;;;;;4.85;1.90;;;19.80;86.40;;;;;;5091373;28;20584;-66
2022/07/26 01:20:11;;;;;;;5.65;1.52;;;20.00;80.90;;;;;;5092129;28;20562;-67
2022/07/26 01:22:39;;;;;;;2.17;1.30;;;20.00;80.60;;;;;;5089376;28;20294;-66
2022/07/26 01:25:07;;;;;;;4.68;1.25;;;20.00;80.80;;;;;;5084668;28;20553;-67
2022/07/26 01:27:38;;;;;;;4.72;1.58;;;19.90;82.10;;;;;;5092440;28;20224;-66
2022/07/26 01:30:07;;;;;;;3.80;1.77;;;19.90;87.40;;;;;;5081410;28;20202;-67
2022/07/26 01:32:34;;;;;;;2.25;1.08;;;19.80;87.50;;;;;;5092084;28;20204;-66
2022/07/26 01:35:01;;;;;;;5.80;1.40;;;19.80;86.70;;;;;;5081961;28;20293;-67
2022/07/26 01:37:28;;;;;;;6.28;1.60;;;19.80;87.80;;;;;;5092243;28;20623;-66
2022/07/26 01:39:56;;;;;;;2.95;1.00;;;19.90;84.20;;;;;;5092468;28;20204;-66
2022/07/26 01:42:23;;;;;;;5.07;1.40;;;19.90;83.00;;;;;;5093412;28;20289;-67
2022/07/26 01:44:50;;;;;;;4.25;1.40;;;20.00;80.80;;;;;;5092888;28;20202;-67
2022/07/26 01:47:17;;;;;;;2.90;1.40;;;19.90;80.50;;;;;;5092502;28;20553;-67
2022/07/26 01:49:44;;;;;;;5.75;1.40;;;19.90;81.50;;;;;;5093114;28;20247;-66
2022/07/26 01:52:11;;;;;;;5.07;1.60;;;19.80;83.30;;;;;;5092903;28;20190;-67
2022/07/26 01:54:37;;;;;;;5.80;1.40;;;19.80;85.10;;;;;;5092229;28;20208;-67
2022/07/26 01:57:06;;;;;;;2.33;1.58;;;19.90;83.80;;;;;;5093044;28;20222;-67
2022/07/26 01:59:33;;;;;;;3.75;1.27;;;19.90;83.40;;;;;;5092999;28;20212;-67
2022/07/26 02:02:00;;;;;;;4.53;1.58;;;19.90;83.30;;;;;;5092627;28;20644;-67
2022/07/26 02:07:11;;;;;;;6.75;1.50;;;19.80;87.10;;;;;;5083266;28;20706;-67
2022/07/26 02:09:38;;;;;;;4.15;1.40;;;19.70;88.30;;;;;;5090753;28;20205;-66
2022/07/26 02:12:07;;;;;;;2.60;1.33;;;19.70;91.10;;;;;;5091280;28;20208;-67
2022/07/26 02:14:34;;;;;;;6.72;1.70;;;19.60;91.10;;;;;;5092257;28;20217;-66
2022/07/26 02:17:01;;;;;;;6.63;1.60;;;19.70;90.80;;;;;;5092427;28;20300;-67
2022/07/26 02:19:28;;;;;;;3.58;1.23;;;19.70;91.00;;;;;;5092328;28;20211;-66
2022/07/26 02:21:55;;;;;;;4.70;1.45;;;19.70;91.20;;;;;;5092075;28;20200;-67
2022/07/26 02:24:22;;;;;;;4.45;1.50;;;19.80;90.40;;;;;;5091737;28;20209;-66
2022/07/26 02:26:49;;;;;;;6.82;1.48;;;19.80;89.60;;;;;;5088960;28;20208;-66
2022/07/26 02:29:17;;;;;;;3.20;1.35;;;19.90;88.60;;;;;;5091861;28;20198;-67
2022/07/26 02:31:44;;;;;;;4.07;1.50;;;19.90;88.80;;;;;;5092336;28;20651;-67
2022/07/26 02:34:11;;;;;;;3.53;1.20;;;19.90;89.20;;;;;;5091673;28;20658;-66
2022/07/26 02:36:38;;;;;;;5.07;1.83;;;19.90;89.10;;;;;;5092492;28;20312;-66
2022/07/26 02:39:05;;;;;;;5.25;1.50;;;19.90;89.90;;;;;;5092492;28;20562;-66
2022/07/26 02:41:32;;;;;;;3.08;1.20;;;19.90;89.60;;;;;;5091496;28;20660;-66
2022/07/26 02:43:59;;;;;;;2.83;1.00;;;19.80;90.30;;;;;;5092102;28;20232;-66
2022/07/26 02:46:27;;;;;;;3.10;1.25;;;19.90;90.50;;;;;;5090553;28;20193;-67
2022/07/26 02:48:54;;;;;;;4.03;1.35;;;19.80;91.20;;;;;;5081156;28;20551;-66
2022/07/26 02:51:21;;;;;;;4.25;2.00;;;19.80;91.50;;;;;;5090495;28;20202;-67
2022/07/26 02:53:48;;;;;;;3.38;1.70;;;19.80;91.30;;;;;;5092133;28;20206;-66
2022/07/26 02:56:15;;;;;;;3.90;1.40;;;19.70;92.60;;;;;;5090818;28;20201;-66
2022/07/26 02:58:42;;;;;;;5.57;1.60;;;19.70;93.80;;;;;;5090760;28;20200;-66
2022/07/26 03:01:10;;;;;;;4.38;1.70;;;19.80;93.60;;;;;;5091155;28;20228;-66
2022/07/26 03:03:38;;;;;;;5.60;1.77;;;19.80;94.00;;;;;;5091944;28;20296;-66
2022/07/26 03:06:05;;;;;;;3.95;1.73;;;19.80;94.00;;;;;;5091609;28;20208;-66
2022/07/26 03:08:32;;;;;;;4.00;1.50;;;19.70;94.80;;;;;;5091220;28;20197;-66
2022/07/26 03:10:59;;;;;;;3.65;1.70;;;19.60;96.40;;;;;;5091688;28;20657;-66
2022/07/26 03:13:26;;;;;;;6.85;1.67;;;19.70;97.30;;;;;;5091524;28;20284;-66
2022/07/26 03:15:53;;;;;;;5.05;1.67;;;19.60;97.70;;;;;;5096522;28;20557;-66
2022/07/26 03:18:20;;;;;;;5.90;1.70;;;19.70;97.80;;;;;;5094605;28;20224;-66
2022/07/26 03:20:48;;;;;;;5.78;1.80;;;19.70;96.90;;;;;;5096405;28;20639;-66
2022/07/26 03:23:18;;;;;;;2.65;1.40;;;19.60;97.60;;;;;;5096301;28;20193;-66
2022/07/26 03:25:45;;;;;;;6.15;1.80;;;19.60;98.40;;;;;;5096281;28;20205;-66
2022/07/26 03:28:12;;;;;;;5.30;1.65;;;19.60;98.40;;;;;;5096060;28;20280;-66
2022/07/26 03:30:39;;;;;;;13.07;4.75;;;19.50;99.90;;;;;;5096308;28;20228;-66
2022/07/26 03:33:06;;;;;;;5.55;2.15;;;19.50;99.90;;;;;;5095000;28;20220;-66
2022/07/26 03:35:33;;;;;;;4.05;1.80;;;19.50;99.90;;;;;;5096161;28;20207;-66
2022/07/26 03:38:01;;;;;;;5.25;1.98;;;19.50;99.90;;;;;;5095226;28;20574;-66
2022/07/26 03:40:28;;;;;;;5.50;2.05;;;19.50;99.90;;;;;;5095771;28;20194;-66
2022/07/26 03:42:55;;;;;;;4.63;1.73;;;19.40;99.90;;;;;;5094888;28;20206;-66
2022/07/26 03:45:22;;;;;;;5.47;1.75;;;19.30;99.90;;;;;;5095359;28;20202;-66
2022/07/26 03:47:49;;;;;;;9.65;2.08;;;19.30;99.90;;;;;;5095431;28;20223;-66
2022/07/26 03:50:16;;;;;;;6.50;1.80;;;19.30;99.90;;;;;;5094397;28;20297;-66
2022/07/26 03:52:43;;;;;;;5.03;1.88;;;19.20;99.90;;;;;;5094927;28;20205;-66
2022/07/26 03:57:55;;;;;;;4.45;1.90;;;19.10;99.90;;;;;;5094620;28;20314;-66
2022/07/26 04:00:22;;;;;;;5.10;1.88;;;19.10;99.90;;;;;;5094808;28;20601;-66
2022/07/26 04:02:49;;;;;;;5.30;1.90;;;19.10;99.90;;;;;;5095467;28;20643;-66
2022/07/26 04:05:16;;;;;;;6.28;1.85;;;19.10;99.90;;;;;;5094530;28;20655;-66
2022/07/26 04:07:43;;;;;;;7.07;2.13;;;19.10;99.90;;;;;;5094716;28;20633;-66
2022/07/26 04:10:14;;;;;;;7.93;2.25;;;19.10;99.90;;;;;;5095473;28;20208;-66
2022/07/26 04:12:41;;;;;;;9.70;2.42;;;19.10;99.90;;;;;;5095109;28;20217;-66
2022/07/26 04:15:09;;;;;;;8.18;3.13;;;19.20;99.90;;;;;;5094594;28;20811;-66
2022/07/26 04:17:39;;;;;;;3.03;1.98;;;19.20;99.90;;;;;;5093995;28;20221;-66
2022/07/26 04:20:07;;;;;;;4.45;2.00;;;19.30;99.90;;;;;;5095024;28;20201;-66
2022/07/26 04:22:34;;;;;;;6.97;2.15;;;19.20;99.90;;;;;;5094612;28;20320;-66
2022/07/26 04:25:01;;;;;;;7.88;2.50;;;19.20;99.90;;;;;;5089722;28;20652;-66
2022/07/26 04:27:30;;;;;;;5.20;2.40;;;19.30;99.90;;;;;;5090522;28;20288;-66
2022/07/26 04:29:57;;;;;;;8.13;2.50;;;19.30;99.90;;;;;;5090414;28;20204;-66
2022/07/26 04:32:24;;;;;;;5.50;1.98;;;19.30;99.90;;;;;;5089901;28;20204;-66
2022/07/26 04:34:51;;;;;;;6.32;2.17;;;19.40;99.90;;;;;;5094786;28;20214;-66
2022/07/26 04:37:18;;;;;;;7.63;2.30;;;19.40;99.90;;;;;;5094212;28;20233;-66
2022/07/26 04:39:45;;;;;;;9.13;2.80;;;19.40;99.90;;;;;;5094857;28;20206;-66
2022/07/26 04:42:12;;;;;;;5.93;2.08;;;19.40;99.90;;;;;;5093793;28;20206;-66
2022/07/26 04:44:40;;;;;;;3.78;2.15;;;19.50;99.90;;;;;;5094511;28;20201;-66
2022/07/26 04:47:07;;;;;;;9.10;2.65;;;19.50;99.90;;;;;;5094632;28;20212;-66
2022/07/26 04:49:34;;;;;;;7.28;2.85;;;19.50;99.90;;;;;;5093393;28;20207;-66
2022/07/26 04:52:01;;;;;;;6.35;2.70;;;19.60;99.90;;;;;;5093825;28;20212;-66
2022/07/26 04:54:28;;;;;;;4.65;2.53;;;19.60;99.90;;;;;;5094433;28;20205;-66
2022/07/26 04:56:55;;;;;;;8.32;2.63;;;19.60;99.90;;;;;;5093775;28;20214;-66
2022/07/26 04:59:22;;;;;;;5.70;2.60;;;19.60;99.90;;;;;;5093592;28;20220;-66
2022/07/26 05:01:50;;;;;;;6.32;3.10;;;19.60;99.90;;;;;;5093491;28;20209;-66
2022/07/26 05:04:17;;;;;;;4.38;2.63;;;19.50;99.90;;;;;;5094248;28;20225;-66
2022/07/26 05:06:44;;;;;;;10.70;2.40;;;19.60;99.90;;;;;;5094577;28;20209;-66
2022/07/26 05:09:10;;;;;;;9.90;2.72;;;19.60;99.90;;;;;;5093804;28;20579;-66
2022/07/26 05:11:37;;;;;;;7.15;2.50;;;19.80;99.90;;;;;;5094057;28;20245;-66
2022/07/26 05:14:04;;;;;;;7.00;2.53;;;19.80;99.90;;;;;;5094169;28;20659;-66
2022/07/26 05:16:31;;;;;;;8.85;2.70;;;19.70;99.90;;;;;;5091296;28;20283;-66
2022/07/26 05:18:59;;;;;;;9.73;2.90;;;19.80;99.90;;;;;;5093767;28;20217;-66
2022/07/26 05:21:27;;;;;;;6.68;2.53;;;19.80;99.90;;;;;;5091870;28;20292;-66
2022/07/26 05:23:54;;;;;;;4.40;2.70;;;19.80;99.90;;;;;;5089384;28;20205;-66
2022/07/26 05:26:21;;;;;;;6.05;2.70;;;19.90;99.90;;;;;;5088197;28;20206;-66
2022/07/26 05:28:49;;;;;;;6.07;2.50;;;19.80;99.90;;;;;;5093524;28;20201;-66
2022/07/26 05:31:16;;;;;;;7.00;2.80;;;19.90;99.90;;;;;;5078032;28;20263;-66
2022/07/26 05:33:43;;;;;;;9.32;2.80;;;20.00;99.90;;;;;;5087847;28;20205;-66
2022/07/26 05:36:11;;;;;;;6.10;2.90;;;19.90;99.90;;;;;;5093180;28;20205;-66
2022/07/26 05:38:38;;;;;;;5.70;2.72;;;19.90;99.90;;;;;;5093027;28;20230;-66
2022/07/26 05:41:05;;;;;;;5.88;3.13;;;19.80;99.90;;;;;;5093521;28;20659;-66
2022/07/26 05:43:32;;;;;;;8.27;4.05;;;19.90;99.90;;;;;;5093225;28;20209;-66
2022/07/26 05:45:59;;;;;;;10.52;3.60;;;19.70;99.90;;;;;;5093573;28;20633;-66
2022/07/26 05:48:26;;;;;;;7.18;3.55;;;19.60;99.90;;;;;;5093209;28;20559;-66
2022/07/26 05:50:53;;;;;;;8.07;3.53;;;19.40;99.90;;;;;;5093319;28;20206;-66
2022/07/26 05:53:21;;;;;;;7.78;3.75;;;19.30;99.90;;;;;;5092640;28;20580;-66
2022/07/26 05:55:48;;;;;;;6.75;3.25;;;19.20;99.90;;;;;;5092972;28;20202;-66
2022/07/26 05:58:15;;;;;;;4.35;3.42;;;19.30;99.90;;;;;;5092692;28;20650;-66
2022/07/26 06:00:42;;;;;;;5.15;3.22;;;19.50;99.90;;;;;;5092516;28;20208;-66
2022/07/26 06:03:24;;;;;;;5.25;3.47;;;19.40;99.90;;;;;;5092504;28;20208;-66
2022/07/26 06:05:55;;;;;;;5.50;3.58;;;19.50;99.90;;;;;;5092540;28;20206;-71
2022/07/26 06:08:25;;;;;;;4.45;3.55;;;19.50;99.90;;;;;;5085717;28;20233;-66
2022/07/26 06:10:53;;;;;;;8.15;3.97;;;19.30;99.90;;;;;;5092077;28;20578;-66
2022/07/26 06:13:20;;;;;;;8.10;4.10;;;19.40;99.90;;;;;;5092735;28;20194;-66
2022/07/26 06:15:46;;;;;;;6.57;3.33;;;19.40;99.90;;;;;;5073695;28;20218;-66
2022/07/26 06:18:14;;;;;;;7.07;3.30;;;19.50;99.90;;;;;;5088853;28;20236;-66
2022/07/26 06:20:42;;;;;;;7.80;3.28;;;19.50;99.90;;;;;;5092472;28;20237;-66
2022/07/26 06:23:08;;;;;;;6.43;3.78;;;19.70;99.90;;;;;;5092085;28;20221;-66
2022/07/26 06:25:37;;;;;;;5.00;3.45;;;19.70;99.90;;;;;;5093284;28;20208;-66
2022/07/26 06:28:05;;;;;;;7.30;3.67;;;19.70;99.90;;;;;;5093097;28;20632;-66
2022/07/26 06:30:32;;;;;;;8.35;3.60;;;19.60;99.90;;;;;;5092905;28;20727;-66
2022/07/26 06:32:58;;;;;;;7.95;3.92;;;19.60;99.90;;;;;;5092521;28;20232;-66
2022/07/26 06:35:29;;;;;;;8.15;3.97;;;19.60;99.90;;;;;;5092679;28;20585;-66
2022/07/26 06:37:57;;;;;;;7.45;4.35;;;19.70;99.90;;;;;;5092551;28;20222;-66
2022/07/26 06:40:24;;;;;;;8.45;3.80;;;19.60;99.90;;;;;;5092923;28;20208;-66
2022/07/26 06:42:52;;;;;;;6.95;3.80;;;19.60;99.90;;;;;;5092364;28;20206;-66
2022/07/26 06:45:19;;;;;;;6.85;3.83;;;19.70;99.90;;;;;;5092753;28;20707;-66
2022/07/26 06:47:46;;;;;;;9.35;4.40;;;20.00;99.90;;;;;;5092417;28;20247;-66
2022/07/26 06:50:13;;;;;;;6.68;3.28;;;20.30;99.90;;;;;;5092452;28;20208;-66
2022/07/26 06:52:40;;;;;;;10.38;3.65;;;20.40;99.90;;;;;;5092383;28;20569;-66
2022/07/26 06:55:08;;;;;;;6.95;3.58;;;20.40;99.90;;;;;;5092468;28;20237;-66
2022/07/26 06:57:35;;;;;;;5.40;3.28;;;20.40;99.90;;;;;;5092192;28;20288;-66
2022/07/26 07:00:04;;;;;;;9.80;4.28;;;20.40;99.90;;;;;;5092504;28;20206;-66
2022/07/26 07:02:31;;;;;;;9.95;3.83;;;20.30;99.90;;;;;;5092031;28;20633;-66
2022/07/26 07:04:58;;;;;;;9.70;3.72;;;20.20;99.90;;;;;;5092282;28;20206;-66
2022/07/26 07:07:25;;;;;;;9.18;4.65;;;20.30;99.90;;;;;;5092196;28;20292;-66
2022/07/26 07:09:52;;;;;;;9.98;4.72;;;20.50;99.90;;;;;;5092315;28;20296;-66
2022/07/26 07:12:18;;;;;;;8.57;4.53;;;20.40;99.90;;;;;;5092091;28;20209;-66
2022/07/26 07:14:45;;;;;;;7.78;3.83;;;20.60;99.90;;;;;;5092250;28;20201;-66
2022/07/26 07:17:19;;;;;;;6.82;3.88;;;20.80;99.90;;;;;;5092181;28;20212;-66
2022/07/26 07:19:46;;;;;;;8.57;3.88;;;20.80;99.90;;;;;;5092318;28;20568;-66
2022/07/26 07:22:13;;;;;;;5.88;3.72;;;20.50;99.90;;;;;;5092227;28;20565;-66
2022/07/26 07:24:40;;;;;;;7.13;3.85;;;20.80;99.90;;;;;;5092172;28;20212;-66
2022/07/26 07:27:07;;;;;;;4.75;3.90;;;20.80;99.90;;;;;;5092199;28;20224;-66
2022/07/26 07:29:34;;;;;;;6.20;4.05;;;20.90;99.90;;;;;;5092081;28;20568;-66
2022/07/26 07:32:01;;;;;;;7.53;4.05;;;20.90;99.90;;;;;;5091784;28;20208;-66
2022/07/26 07:34:30;;;;;;;6.57;3.70;;;21.20;99.90;;;;;;5092262;28;20660;-66
2022/07/26 07:36:57;;;;;;;6.95;3.80;;;21.20;99.90;;;;;;5092156;28;20305;-66
2022/07/26 07:39:24;;;;;;;9.07;4.15;;;21.20;99.90;;;;;;5092020;28;20217;-66
2022/07/26 07:41:51;;;;;;;6.35;3.78;;;21.40;99.90;;;;;;5091866;28;20292;-66
2022/07/26 07:44:18;;;;;;;7.20;3.50;;;21.50;97.50;;;;;;5091744;28;20209;-66
2022/07/26 07:46:45;;;;;;;6.60;3.22;;;21.60;94.90;;;;;;5092146;28;20554;-66
2022/07/26 07:49:11;;;;;;;4.88;3.47;;;21.70;93.90;;;;;;5088201;28;20190;-66
2022/07/26 07:51:40;;;;;;;4.90;3.28;;;21.80;91.80;;;;;;5082053;28;20204;-66
2022/07/26 07:54:07;;;;;;;6.72;3.58;;;21.90;90.10;;;;;;5090261;28;20293;-66
2022/07/26 07:56:34;;;;;;;4.68;3.47;;;21.90;88.50;;;;;;5091366;28;20245;-66
2022/07/26 07:59:01;;;;;;;6.03;3.80;;;22.00;90.30;;;;;;5091712;28;20313;-66
2022/07/26 08:01:28;;;;;;;5.80;3.17;;;22.20;89.80;;;;;;5095105;28;20202;-66
2022/07/26 08:03:55;;;;;;;7.38;4.05;;;22.10;88.00;;;;;;5096008;28;20623;-66
2022/07/26 08:06:21;;;;;;;6.28;3.60;;;22.00;84.50;;;;;;5095398;28;20231;-66
2022/07/26 08:08:50;;;;;;;6.53;3.70;;;22.00;86.10;;;;;;5095670;28;20204;-66
2022/07/26 08:11:17;;;;;;;5.70;3.97;;;22.00;90.30;;;;;;5095356;28;20296;-67
2022/07/26 08:13:43;;;;;;;7.50;4.22;;;21.90;85.10;;;;;;5095746;28;20192;-66
2022/07/26 08:16:10;;;;;;;9.38;3.78;;;21.80;86.80;;;;;;5095393;28;20201;-66
2022/07/26 08:18:37;;;;;;;4.57;3.45;;;21.90;84.60;;;;;;5095315;28;20312;-66
2022/07/26 08:21:04;;;;;;;7.25;3.67;;;22.10;78.20;;;;;;5095109;28;20205;-66
2022/07/26 08:23:31;;;;;;;6.78;3.67;;;22.40;69.90;;;;;;5095321;28;20202;-66
2022/07/26 08:26:00;;;;;;;7.38;3.78;;;22.30;74.10;;;;;;5095147;28;20202;-66
2022/07/26 08:28:27;;;;;;;6.68;3.90;;;22.20;74.40;;;;;;5095370;28;20252;-66
2022/07/26 08:30:54;;;;;;;4.28;2.95;;;22.40;74.90;;;;;;5094917;28;20202;-66
2022/07/26 08:33:22;;;;;;;5.57;3.50;;;22.70;64.90;;;;;;5095046;28;20204;-66
2022/07/26 08:35:49;;;;;;;5.75;3.58;;;22.70;64.80;;;;;;5095199;28;20202;-66
2022/07/26 08:38:16;;;;;;;3.28;2.92;;;22.60;61.60;;;;;;5095230;28;20223;-66
2022/07/26 08:40:43;;;;;;;4.32;3.13;;;22.30;57.80;;;;;;5094961;28;20205;-67
2022/07/26 08:43:11;;;;;;;7.45;3.30;;;22.50;58.10;;;;;;5094547;28;20289;-66
2022/07/26 08:45:38;;;;;;;2.90;2.70;;;22.70;56.80;;;;;;5095100;28;20571;-66
2022/07/26 08:48:05;;;;;;;5.38;2.85;;;22.70;55.10;;;;;;5094945;28;20624;-66
2022/07/26 08:50:33;;;;;;;4.05;3.20;;;22.80;56.20;;;;;;5095022;28;20206;-66
2022/07/26 08:53:05;;;;;;;4.50;2.85;;;23.00;54.40;;;;;;5094513;28;20235;-66
2022/07/26 08:55:32;;;;;;;5.22;2.65;;;23.20;51.90;;;;;;5094744;28;20202;-66
2022/07/26 08:58:01;;;;;;;4.50;2.83;;;23.50;47.60;;;;;;5094800;28;20569;-66
2022/07/26 09:00:31;;;;;;;4.80;2.63;;;23.80;45.20;;;;;;5094603;28;20202;-66
2022/07/26 09:02:59;;;;;;;4.78;2.63;;;23.80;42.30;;;;;;5094341;28;20211;-66
2022/07/26 09:05:28;;;;;;;4.15;2.60;;;24.10;42.10;;;;;;5094537;28;20205;-66
2022/07/26 09:07:55;;;;;;;7.30;3.00;;;24.30;41.20;;;;;;5094567;28;20206;-66
2022/07/26 09:10:22;;;;;;;3.92;2.40;;;24.00;40.40;;;;;;5094493;28;20292;-67
2022/07/26 09:12:54;;;;;;;3.45;1.92;;;24.00;40.70;;;;;;5093107;28;20245;-66
2022/07/26 09:15:23;;;;;;;1.95;1.70;;;22.60;57.30;;;;;;5094296;28;20209;-67
2022/07/26 09:17:53;;;;;;;4.10;2.00;;;21.50;88.70;;;;;;5094324;28;20204;-67
2022/07/26 09:20:22;;;;;;;1.52;1.40;;;21.00;99.90;;;;;;5094099;28;20316;-66
2022/07/26 09:23:01;;;;;;;2.30;1.77;;;20.90;99.90;;;;;;5093878;28;20204;-67
2022/07/26 09:25:29;;;;;;;2.22;1.02;;;20.70;99.90;;;;;;5094280;28;20741;-67
2022/07/26 09:27:58;;;;;;;1.35;1.10;;;20.50;99.90;;;;;;5091683;28;20203;-67
2022/07/26 09:30:25;;;;;;;1.50;1.10;;;20.20;99.90;;;;;;5090657;28;20194;-67
2022/07/26 09:33:05;;;;;;;2.65;1.00;;;20.20;99.90;;;;;;5090974;28;20633;-67
2022/07/26 09:35:36;;;;;;;2.80;1.42;;;20.00;99.90;;;;;;5090473;28;20189;-67
2022/07/26 09:38:12;;;;;;;2.20;1.13;;;19.90;99.90;;;;;;5086574;28;20204;-67
2022/07/26 09:40:40;;;;;;;1.20;1.10;;;20.20;99.90;;;;;;5083623;28;20213;-67
2022/07/26 09:43:07;;;;;;;2.97;1.35;;;20.40;99.90;;;;;;5073585;28;20298;-67
2022/07/26 09:45:36;;;;;;;3.83;1.50;;;20.40;99.90;;;;;;5085247;28;20205;-67
2022/07/26 09:48:05;;;;;;;1.67;1.58;;;20.10;99.90;;;;;;5093031;28;20223;-66
2022/07/26 09:50:33;;;;;;;1.35;1.25;;;20.30;99.90;;;;;;5093168;28;20208;-66
2022/07/26 09:53:03;;;;;;;1.35;1.25;;;19.80;99.90;;;;;;5093008;28;20255;-67
2022/07/26 09:55:30;;;;;;;4.22;1.80;;;19.70;99.90;;;;;;5093247;28;20205;-67
2022/07/26 09:57:58;;;;;;;2.65;1.40;;;19.90;99.90;;;;;;5093634;28;20301;-67
2022/07/26 10:00:26;;;;;;;2.95;1.65;;;20.00;99.90;;;;;;5093283;28;20738;-67
2022/07/26 10:02:53;;;;;;;2.58;1.17;;;19.80;99.90;;;;;;5092327;28;20551;-67
2022/07/26 10:05:21;;;;;;;2.60;1.50;;;19.90;99.90;;;;;;5093309;28;20202;-66
2022/07/26 10:07:49;;;;;;;3.90;1.75;;;20.00;99.90;;;;;;5092389;28;20296;-66
2022/07/26 10:10:22;;;;;;;2.80;1.42;;;19.60;99.90;;;;;;5092020;28;20655;-67
2022/07/26 10:12:51;;;;;;;4.28;1.90;;;19.80;99.90;;;;;;5091993;28;20216;-67
2022/07/26 10:15:35;;;;;;;3.20;1.73;;;20.00;99.90;;;;;;5093110;28;20212;-67
2022/07/26 10:18:02;;;;;;;5.13;1.88;;;19.80;99.90;;;;;;5090626;28;20212;-66
2022/07/26 10:20:48;;;;;;;2.22;1.42;;;19.80;99.90;;;;;;5084675;28;20218;-66
2022/07/26 10:23:41;;;;;;;3.72;2.05;;;19.60;99.90;;;;;;5072162;28;20198;-66
2022/07/26 10:26:10;;;;;;;2.50;1.40;;;19.90;99.90;;;;;;5071763;28;20216;-67
2022/07/26 10:28:39;;;;;;;2.78;1.73;;;20.10;99.90;;;;;;5090506;28;20288;-66
2022/07/26 10:31:29;;;;;;;2.22;1.63;;;20.10;99.90;;;;;;5091811;28;20203;-66
2022/07/26 10:33:59;;;;;;;3.90;1.60;;;20.00;99.90;;;;;;5091644;28;20210;-67
2022/07/26 10:36:33;;;;;;;1.27;1.17;;;20.40;99.90;;;;;;5091594;28;20229;-66
2022/07/26 10:39:03;;;;;;;4.05;1.63;;;20.60;99.90;;;;;;5091863;28;20231;-67
2022/07/26 10:41:34;;;;;;;2.83;1.77;;;20.60;99.90;;;;;;5091585;28;20192;-67
2022/07/26 10:44:23;;;;;;;3.15;1.98;;;20.80;99.90;;;;;;5092038;28;20686;-67
2022/07/26 10:47:18;;;;;;;2.90;1.55;;;20.50;99.90;;;;;;5091681;28;20372;-67
2022/07/26 10:49:56;;;;;;;4.43;1.80;;;20.60;99.90;;;;;;5090206;28;20197;-67
2022/07/26 10:52:27;;;;;;;1.75;1.58;;;20.60;99.90;;;;;;5087731;28;20636;-67
2022/07/26 10:55:18;;;;;;;2.65;1.77;;;20.60;99.90;;;;;;5088580;28;20233;-67
2022/07/26 10:57:49;;;;;;;2.50;2.15;;;20.60;99.90;;;;;;5090569;28;20233;-66
2022/07/26 11:00:19;;;;;;;8.35;2.17;;;20.40;99.90;;;;;;5092299;28;20228;-67
2022/07/26 11:02:55;;;;;;;3.13;2.10;;;20.60;99.90;;;;;;5091368;28;20567;-66
2022/07/26 11:05:27;;;;;;;2.80;2.08;;;20.70;99.90;;;;;;5091358;28;20266;-67
2022/07/26 11:08:10;;;;;;;4.25;1.85;;;20.80;99.90;;;;;;5091523;28;20237;-66
2022/07/26 11:10:39;;;;;;;2.03;1.60;;;20.40;99.90;;;;;;5091169;28;20201;-66
2022/07/26 11:13:18;;;;;;;5.82;1.90;;;20.40;99.90;;;;;;5091782;28;20300;-67
2022/07/26 11:15:47;;;;;;;2.00;1.20;;;20.20;99.90;;;;;;5091214;28;20211;-66
2022/07/26 11:18:21;;;;;;;2.70;1.73;;;20.80;99.90;;;;;;5091924;28;20579;-67
2022/07/26 11:20:51;;;;;;;2.17;1.70;;;20.80;99.90;;;;;;5090903;28;20221;-67
2022/07/26 11:23:28;;;;;;;3.42;1.33;;;21.20;99.90;;;;;;5091508;28;20256;-67
2022/07/26 11:26:12;;;;;;;1.27;1.17;;;21.20;99.90;;;;;;5092486;28;20201;-67
2022/07/26 11:28:48;;;;;;;2.85;1.35;;;21.00;99.90;;;;;;5091286;28;20203;-66
2022/07/26 11:31:16;;;;;;;2.67;1.27;;;20.80;99.90;;;;;;5090109;28;20200;-67
2022/07/26 11:33:47;;;;;;;1.55;1.38;;;20.70;99.90;;;;;;5082445;28;20207;-67
2022/07/26 11:36:15;;;;;;;2.28;1.13;;;20.60;99.90;;;;;;5095560;28;20228;-67
2022/07/26 11:38:48;;;;;;;2.88;1.33;;;20.20;99.90;;;;;;5095607;28;20633;-67
2022/07/26 11:41:18;;;;;;;2.60;1.27;;;20.00;99.90;;;;;;5094783;28;20594;-67
2022/07/26 11:43:45;;;;;;;2.42;1.48;;;20.20;99.90;;;;;;5095212;28;20241;-67
2022/07/26 11:46:12;;;;;;;3.50;1.33;;;20.10;99.90;;;;;;5095875;28;20192;-67
2022/07/26 11:48:44;;;;;;;4.05;1.60;;;20.10;99.90;;;;;;5095173;28;20645;-67
2022/07/26 11:51:13;;;;;;;6.28;1.15;;;20.20;99.90;;;;;;5095661;28;20578;-67
2022/07/26 11:53:40;;;;;;;1.10;0.88;;;19.80;99.90;;;;;;5095919;28;20227;-67
2022/07/26 11:56:13;;;;;;;1.60;1.50;;;20.00;99.90;;;;;;5095278;28;20202;-67
2022/07/26 11:58:41;;;;;;;2.53;1.08;;;20.00;99.90;;;;;;5095473;28;20202;-67
2022/07/26 12:01:09;;;;;;;2.50;0.73;;;20.00;99.90;;;;;;5086672;28;20304;-66
2022/07/26 12:03:37;;;;;;;0.93;0.93;;;20.20;99.90;;;;;;5094166;28;20201;-67
2022/07/26 12:06:06;;;;;;;0.40;0.40;;;20.60;99.90;;;;;;5075383;28;20366;-67
2022/07/26 12:08:41;;;;;;;1.13;0.43;;;20.50;99.90;;;;;;5085924;28;20216;-67
2022/07/26 12:11:08;;;;;;;4.22;0.82;;;20.70;99.90;;;;;;5094411;28;20250;-67
2022/07/26 12:14:00;;;;;;;1.50;0.60;;;21.00;99.90;;;;;;5094139;28;20202;-67
2022/07/26 12:16:42;;;;;;;0.75;0.40;;;21.00;99.90;;;;;;5094688;28;20571;-67
2022/07/26 12:19:23;;;;;;;0.50;0.50;;;21.80;99.90;;;;;;5094541;28;20252;-67
2022/07/26 12:21:52;;;;;;;1.40;0.95;;;22.40;97.80;;;;;;5094859;28;20201;-73
2022/07/26 12:24:42;;;;;;;1.58;1.15;;;22.60;96.60;;;;;;5094351;28;20650;-74
2022/07/26 12:27:10;;;;;;;1.30;0.40;;;22.90;88.50;;;;;;5094631;28;20216;-73
2022/07/26 12:29:40;;;;;;;0.50;0.50;;;22.70;81.80;;;;;;5094787;28;20201;-75
2022/07/26 12:32:09;;;;;;;0.40;0.40;;;22.30;85.60;;;;;;5093281;28;20212;-72
2022/07/26 12:34:38;;;;;;;1.23;0.32;;;22.20;82.80;;;;;;5094425;28;20580;-72
2022/07/26 12:37:10;;;;;;;0.30;0.30;;;22.90;81.40;;;;;;5094887;28;20202;-71
2022/07/26 12:39:37;;;;;;;1.45;0.63;;;23.80;64.60;;;;;;5084369;28;20604;-72
2022/07/26 12:42:24;;;;;;;0.65;0.50;;;23.60;51.40;;;;;;5084652;28;20201;-72
2022/07/26 12:44:52;;;;;;;0.90;0.55;;;24.60;49.30;;;;;;5074484;28;20202;-72
2022/07/26 12:47:20;;;;;;;3.28;0.60;;;24.50;43.00;;;;;;5094209;28;20210;-72
2022/07/26 12:49:46;;;;;;;0.52;0.45;;;24.20;43.50;;;;;;5092844;28;20274;-72
2022/07/26 12:52:15;;;;;;;1.65;0.45;;;24.10;42.70;;;;;;5090849;28;20285;-73
2022/07/26 12:54:44;;;;;;;1.58;0.80;;;23.50;43.60;;;;;;5087002;28;20568;-73
2022/07/26 12:57:11;;;;;;;3.58;0.73;;;23.10;48.80;;;;;;5091249;28;20208;-73
2022/07/26 12:59:37;;;;;;;1.98;0.52;;;22.70;51.70;;;;;;5085920;28;20206;-73